sensor_id;sensor_type;location;lat;lon;timestamp;temperature;humidity
20881;DHT22;10600;53.096;8.802;2024-02-21T00:00:31;9.50;99.90
20881;DHT22;10600;53.096;8.802;2024-02-21T00:01:32;9.50;99.90
20881;DHT22;10600;53.096;8.802;2024-02-21T00:02:32;9.50;99.90
20881;DHT22;10600;53.096;8.802;2024-02-21T00:03:33;9.60;99.90
20881;DHT22;10600;53.096;8.802;2024-02-21T00:04:34;9.50;99.90
20881;DHT22;10600;53.096;8.802;2024-02-21T00:05:35;9.50;99.90
20881;DHT22;10600;53.096;8.802;2024-02-21T00:06:35;9.50;99.90
20881;DHT22;10600;53.096;8.802;2024-02-21T00:07:36;9.60;99.90
20881;DHT22;10600;53.096;8.802;2024-02-21T00:08:36;9.60;99.90
20881;DHT22;10600;53.096;8.802;2024-02-21T00:09:37;9.50;99.90
20881;DHT22;10600;53.096;8.802;2024-02-21T00:10:38;9.60;99.90
20881;DHT22;10600;53.096;8.802;2024-02-21T00:11:38;9.60;99.90
20881;DHT22;10600;53.096;8.802;2024-02-21T00:12:39;9.60;99.90
20881;DHT22;10600;53.096;8.802;2024-02-21T00:13:39;9.60;99.90
20881;DHT22;10600;53.096;8.802;2024-02-21T00:14:40;9.60;99.90
20881;DHT22;10600;53.096;8.802;2024-02-21T00:15:41;9.60;99.90
20881;DHT22;10600;53.096;8.802;2024-02-21T00:16:41;9.60;99.90
20881;DHT22;10600;53.096;8.802;2024-02-21T00:17:45;9.60;99.90
20881;DHT22;10600;53.096;8.802;2024-02-21T00:18:46;9.60;99.90
20881;DHT22;10600;53.096;8.802;2024-02-21T00:19:46;9.60;99.90
20881;DHT22;10600;53.096;8.802;2024-02-21T00:20:47;9.60;99.90
20881;DHT22;10600;53.096;8.802;2024-02-21T00:21:48;9.50;99.90
20881;DHT22;10600;53.096;8.802;2024-02-21T00:22:49;9.50;99.90
20881;DHT22;10600;53.096;8.802;2024-02-21T00:23:49;9.60;99.90
20881;DHT22;10600;53.096;8.802;2024-02-21T00:24:50;9.60;99.90
20881;DHT22;10600;53.096;8.802;2024-02-21T00:25:51;9.60;99.90
20881;DHT22;10600;53.096;8.802;2024-02-21T00:26:53;9.50;99.90
20881;DHT22;10600;53.096;8.802;2024-02-21T00:27:53;9.60;99.90
20881;DHT22;10600;53.096;8.802;2024-02-21T00:28:54;9.60;99.90
20881;DHT22;10600;53.096;8.802;2024-02-21T00:29:55;9.60;99.90
20881;DHT22;10600;53.096;8.802;2024-02-21T00:30:55;9.50;99.90
20881;DHT22;10600;53.096;8.802;2024-02-21T00:31:56;9.50;99.90
20881;DHT22;10600;53.096;8.802;2024-02-21T00:32:56;9.50;99.90
20881;DHT22;10600;53.096;8.802;2024-02-21T00:33:57;9.50;99.90
20881;DHT22;10600;53.096;8.802;2024-02-21T00:34:58;9.50;99.90
20881;DHT22;10600;53.096;8.802;2024-02-21T00:35:58;9.60;99.90
20881;DHT22;10600;53.096;8.802;2024-02-21T00:36:59;9.50;99.90
20881;DHT22;10600;53.096;8.802;2024-02-21T00:37:59;9.50;99.90
20881;DHT22;10600;53.096;8.802;2024-02-21T00:39:00;9.60;99.90
20881;DHT22;10600;53.096;8.802;2024-02-21T00:40:01;9.60;99.90
20881;DHT22;10600;53.096;8.802;2024-02-21T00:41:01;9.50;99.90
20881;DHT22;10600;53.096;8.802;2024-02-21T00:42:02;9.60;99.90
20881;DHT22;10600;53.096;8.802;2024-02-21T00:43:03;9.60;99.90
20881;DHT22;10600;53.096;8.802;2024-02-21T00:44:03;9.60;99.90
20881;DHT22;10600;53.096;8.802;2024-02-21T00:45:06;9.60;99.90
20881;DHT22;10600;53.096;8.802;2024-02-21T00:46:07;9.50;99.90
20881;DHT22;10600;53.096;8.802;2024-02-21T00:47:07;9.60;99.90
20881;DHT22;10600;53.096;8.802;2024-02-21T00:48:08;9.60;99.90
20881;DHT22;10600;53.096;8.802;2024-02-21T00:49:08;9.60;99.90
20881;DHT22;10600;53.096;8.802;2024-02-21T00:50:09;9.60;99.90
20881;DHT22;10600;53.096;8.802;2024-02-21T00:51:10;9.60;99.90
20881;DHT22;10600;53.096;8.802;2024-02-21T00:52:10;9.60;99.90
20881;DHT22;10600;53.096;8.802;2024-02-21T00:53:11;9.60;99.90
20881;DHT22;10600;53.096;8.802;2024-02-21T00:54:11;9.60;99.90
20881;DHT22;10600;53.096;8.802;2024-02-21T00:55:12;9.60;99.90
20881;DHT22;10600;53.096;8.802;2024-02-21T00:56:12;9.60;99.90
20881;DHT22;10600;53.096;8.802;2024-02-21T00:57:13;9.60;99.90
20881;DHT22;10600;53.096;8.802;2024-02-21T00:58:13;9.60;99.90
20881;DHT22;10600;53.096;8.802;2024-02-21T00:59:14;9.60;99.90
20881;DHT22;10600;53.096;8.802;2024-02-21T01:00:15;9.60;99.90
20881;DHT22;10600;53.096;8.802;2024-02-21T01:01:24;9.60;99.90
20881;DHT22;10600;53.096;8.802;2024-02-21T01:02:26;9.60;99.90
20881;DHT22;10600;53.096;8.802;2024-02-21T01:03:27;9.60;99.90
20881;DHT22;10600;53.096;8.802;2024-02-21T01:04:27;9.50;99.90
20881;DHT22;10600;53.096;8.802;2024-02-21T01:05:28;9.60;99.90
20881;DHT22;10600;53.096;8.802;2024-02-21T01:06:29;9.60;99.90
20881;DHT22;10600;53.096;8.802;2024-02-21T01:07:30;9.60;99.90
20881;DHT22;10600;53.096;8.802;2024-02-21T01:08:30;9.60;99.90
20881;DHT22;10600;53.096;8.802;2024-02-21T01:09:31;9.60;99.90
20881;DHT22;10600;53.096;8.802;2024-02-21T01:10:31;9.60;99.90
20881;DHT22;10600;53.096;8.802;2024-02-21T01:11:32;9.60;99.90
20881;DHT22;10600;53.096;8.802;2024-02-21T01:12:33;9.60;99.90
20881;DHT22;10600;53.096;8.802;2024-02-21T01:13:33;9.60;99.90
20881;DHT22;10600;53.096;8.802;2024-02-21T01:14:34;9.60;99.90
20881;DHT22;10600;53.096;8.802;2024-02-21T01:15:34;9.60;99.90
20881;DHT22;10600;53.096;8.802;2024-02-21T01:16:35;9.60;99.90
20881;DHT22;10600;53.096;8.802;2024-02-21T01:17:36;9.60;99.90
20881;DHT22;10600;53.096;8.802;2024-02-21T01:18:39;9.60;99.90
20881;DHT22;10600;53.096;8.802;2024-02-21T01:19:40;9.60;99.90
20881;DHT22;10600;53.096;8.802;2024-02-21T01:20:40;9.60;99.90
20881;DHT22;10600;53.096;8.802;2024-02-21T01:21:41;9.60;99.90
20881;DHT22;10600;53.096;8.802;2024-02-21T01:22:41;9.60;99.90
20881;DHT22;10600;53.096;8.802;2024-02-21T01:23:42;9.60;99.90
20881;DHT22;10600;53.096;8.802;2024-02-21T01:24:43;9.60;99.90
20881;DHT22;10600;53.096;8.802;2024-02-21T01:25:43;9.60;99.90
20881;DHT22;10600;53.096;8.802;2024-02-21T01:26:44;9.60;99.90
20881;DHT22;10600;53.096;8.802;2024-02-21T01:27:44;9.60;99.90
20881;DHT22;10600;53.096;8.802;2024-02-21T01:28:45;9.60;99.90
20881;DHT22;10600;53.096;8.802;2024-02-21T01:29:46;9.60;99.90
20881;DHT22;10600;53.096;8.802;2024-02-21T01:30:48;9.60;99.90
20881;DHT22;10600;53.096;8.802;2024-02-21T01:31:48;9.60;99.90
20881;DHT22;10600;53.096;8.802;2024-02-21T01:32:49;9.60;99.90
20881;DHT22;10600;53.096;8.802;2024-02-21T01:33:49;9.60;99.90
20881;DHT22;10600;53.096;8.802;2024-02-21T01:34:50;9.60;99.90
20881;DHT22;10600;53.096;8.802;2024-02-21T01:35:52;9.60;99.90
20881;DHT22;10600;53.096;8.802;2024-02-21T01:36:53;9.60;99.90
20881;DHT22;10600;53.096;8.802;2024-02-21T01:37:53;9.60;99.90
20881;DHT22;10600;53.096;8.802;2024-02-21T01:38:54;9.60;99.90
20881;DHT22;10600;53.096;8.802;2024-02-21T01:39:55;9.60;99.90
20881;DHT22;10600;53.096;8.802;2024-02-21T01:40:55;9.60;99.90
20881;DHT22;10600;53.096;8.802;2024-02-21T01:41:56;9.60;99.90
20881;DHT22;10600;53.096;8.802;2024-02-21T01:42:57;9.60;99.90
20881;DHT22;10600;53.096;8.802;2024-02-21T01:43:58;9.60;99.90
20881;DHT22;10600;53.096;8.802;2024-02-21T01:44:58;9.60;99.90
20881;DHT22;10600;53.096;8.802;2024-02-21T01:45:59;9.60;99.90
20881;DHT22;10600;53.096;8.802;2024-02-21T01:47:00;9.60;99.90
20881;DHT22;10600;53.096;8.802;2024-02-21T01:48:01;9.60;99.90
20881;DHT22;10600;53.096;8.802;2024-02-21T01:49:01;9.60;99.90
20881;DHT22;10600;53.096;8.802;2024-02-21T01:50:02;9.60;99.90
20881;DHT22;10600;53.096;8.802;2024-02-21T01:51:04;9.60;99.90
20881;DHT22;10600;53.096;8.802;2024-02-21T01:52:05;9.60;99.90
20881;DHT22;10600;53.096;8.802;2024-02-21T01:53:06;9.60;99.90
20881;DHT22;10600;53.096;8.802;2024-02-21T01:54:07;9.60;99.90
20881;DHT22;10600;53.096;8.802;2024-02-21T01:55:09;9.60;99.90
20881;DHT22;10600;53.096;8.802;2024-02-21T01:56:12;9.60;99.90
20881;DHT22;10600;53.096;8.802;2024-02-21T01:57:13;9.60;99.90
20881;DHT22;10600;53.096;8.802;2024-02-21T01:58:15;9.60;99.90
20881;DHT22;10600;53.096;8.802;2024-02-21T01:59:17;9.60;99.90
20881;DHT22;10600;53.096;8.802;2024-02-21T02:00:19;9.60;99.90
20881;DHT22;10600;53.096;8.802;2024-02-21T02:01:20;9.60;99.90
20881;DHT22;10600;53.096;8.802;2024-02-21T02:02:21;9.60;99.90
20881;DHT22;10600;53.096;8.802;2024-02-21T02:03:21;9.60;99.90
20881;DHT22;10600;53.096;8.802;2024-02-21T02:04:22;9.60;99.90
20881;DHT22;10600;53.096;8.802;2024-02-21T02:05:23;9.60;99.90
20881;DHT22;10600;53.096;8.802;2024-02-21T02:06:24;9.60;99.90
20881;DHT22;10600;53.096;8.802;2024-02-21T02:07:25;9.60;99.90
20881;DHT22;10600;53.096;8.802;2024-02-21T02:08:25;9.60;99.90
20881;DHT22;10600;53.096;8.802;2024-02-21T02:09:26;9.60;99.90
20881;DHT22;10600;53.096;8.802;2024-02-21T02:10:27;9.60;99.90
20881;DHT22;10600;53.096;8.802;2024-02-21T02:11:27;9.60;99.90
20881;DHT22;10600;53.096;8.802;2024-02-21T02:12:28;9.60;99.90
20881;DHT22;10600;53.096;8.802;2024-02-21T02:13:29;9.60;99.90
20881;DHT22;10600;53.096;8.802;2024-02-21T02:14:30;9.60;99.90
20881;DHT22;10600;53.096;8.802;2024-02-21T02:15:48;9.50;99.90
20881;DHT22;10600;53.096;8.802;2024-02-21T02:16:48;9.50;99.90
20881;DHT22;10600;53.096;8.802;2024-02-21T02:17:49;9.50;99.90
20881;DHT22;10600;53.096;8.802;2024-02-21T02:18:50;9.50;99.90
20881;DHT22;10600;53.096;8.802;2024-02-21T02:19:50;9.50;99.90
20881;DHT22;10600;53.096;8.802;2024-02-21T02:20:51;9.50;99.90
20881;DHT22;10600;53.096;8.802;2024-02-21T02:21:59;9.50;99.90
20881;DHT22;10600;53.096;8.802;2024-02-21T02:24:24;9.50;99.90
20881;DHT22;10600;53.096;8.802;2024-02-21T02:25:26;9.50;99.90
20881;DHT22;10600;53.096;8.802;2024-02-21T02:26:27;9.50;99.90
20881;DHT22;10600;53.096;8.802;2024-02-21T02:27:27;9.50;99.90
20881;DHT22;10600;53.096;8.802;2024-02-21T02:28:28;9.50;99.90
20881;DHT22;10600;53.096;8.802;2024-02-21T02:29:28;9.50;99.90
20881;DHT22;10600;53.096;8.802;2024-02-21T02:30:33;9.50;99.90
20881;DHT22;10600;53.096;8.802;2024-02-21T02:31:37;9.50;99.90
20881;DHT22;10600;53.096;8.802;2024-02-21T02:32:38;9.50;99.90
20881;DHT22;10600;53.096;8.802;2024-02-21T02:33:39;9.50;99.90
20881;DHT22;10600;53.096;8.802;2024-02-21T02:34:40;9.50;99.90
20881;DHT22;10600;53.096;8.802;2024-02-21T02:35:40;9.50;99.90
20881;DHT22;10600;53.096;8.802;2024-02-21T02:36:41;9.50;99.90
20881;DHT22;10600;53.096;8.802;2024-02-21T02:37:48;9.50;99.90
20881;DHT22;10600;53.096;8.802;2024-02-21T02:38:49;9.50;99.90
20881;DHT22;10600;53.096;8.802;2024-02-21T02:39:49;9.50;99.90
20881;DHT22;10600;53.096;8.802;2024-02-21T02:40:50;9.50;99.90
20881;DHT22;10600;53.096;8.802;2024-02-21T02:41:50;9.50;99.90
20881;DHT22;10600;53.096;8.802;2024-02-21T02:42:51;9.50;99.90
20881;DHT22;10600;53.096;8.802;2024-02-21T02:43:55;9.50;99.90
20881;DHT22;10600;53.096;8.802;2024-02-21T02:44:55;9.50;99.90
20881;DHT22;10600;53.096;8.802;2024-02-21T02:45:57;9.50;99.90
20881;DHT22;10600;53.096;8.802;2024-02-21T02:46:58;9.50;99.90
20881;DHT22;10600;53.096;8.802;2024-02-21T02:47:59;9.50;99.90
20881;DHT22;10600;53.096;8.802;2024-02-21T02:48:59;9.50;99.90
20881;DHT22;10600;53.096;8.802;2024-02-21T02:50:00;9.50;99.90
20881;DHT22;10600;53.096;8.802;2024-02-21T02:51:01;9.50;99.90
20881;DHT22;10600;53.096;8.802;2024-02-21T02:52:02;9.50;99.90
20881;DHT22;10600;53.096;8.802;2024-02-21T02:53:03;9.50;99.90
20881;DHT22;10600;53.096;8.802;2024-02-21T02:54:04;9.50;99.90
20881;DHT22;10600;53.096;8.802;2024-02-21T02:55:05;9.50;99.90
20881;DHT22;10600;53.096;8.802;2024-02-21T02:56:06;9.50;99.90
20881;DHT22;10600;53.096;8.802;2024-02-21T02:57:07;9.50;99.90
20881;DHT22;10600;53.096;8.802;2024-02-21T02:58:08;9.50;99.90
20881;DHT22;10600;53.096;8.802;2024-02-21T02:59:09;9.50;99.90
20881;DHT22;10600;53.096;8.802;2024-02-21T03:00:16;9.50;99.90
20881;DHT22;10600;53.096;8.802;2024-02-21T03:01:16;9.50;99.90
20881;DHT22;10600;53.096;8.802;2024-02-21T03:02:17;9.50;99.90
20881;DHT22;10600;53.096;8.802;2024-02-21T03:03:17;9.50;99.90
20881;DHT22;10600;53.096;8.802;2024-02-21T03:04:18;9.50;99.90
20881;DHT22;10600;53.096;8.802;2024-02-21T03:05:20;9.50;99.90
20881;DHT22;10600;53.096;8.802;2024-02-21T03:06:20;9.50;99.90
20881;DHT22;10600;53.096;8.802;2024-02-21T03:07:21;9.50;99.90
20881;DHT22;10600;53.096;8.802;2024-02-21T03:08:21;9.50;99.90
20881;DHT22;10600;53.096;8.802;2024-02-21T03:09:23;9.50;99.90
20881;DHT22;10600;53.096;8.802;2024-02-21T03:10:23;9.50;99.90
20881;DHT22;10600;53.096;8.802;2024-02-21T03:11:27;9.50;99.90
20881;DHT22;10600;53.096;8.802;2024-02-21T03:12:29;9.50;99.90
20881;DHT22;10600;53.096;8.802;2024-02-21T03:13:29;9.50;99.90
20881;DHT22;10600;53.096;8.802;2024-02-21T03:14:30;9.50;99.90
20881;DHT22;10600;53.096;8.802;2024-02-21T03:15:31;9.50;99.90
20881;DHT22;10600;53.096;8.802;2024-02-21T03:16:31;9.50;99.90
20881;DHT22;10600;53.096;8.802;2024-02-21T03:17:32;9.50;99.90
20881;DHT22;10600;53.096;8.802;2024-02-21T03:18:34;9.50;99.90
20881;DHT22;10600;53.096;8.802;2024-02-21T03:19:35;9.60;99.90
20881;DHT22;10600;53.096;8.802;2024-02-21T03:20:35;9.60;99.90
20881;DHT22;10600;53.096;8.802;2024-02-21T03:21:39;9.50;99.90
20881;DHT22;10600;53.096;8.802;2024-02-21T03:22:40;9.60;99.90
20881;DHT22;10600;53.096;8.802;2024-02-21T03:23:41;9.60;99.90
20881;DHT22;10600;53.096;8.802;2024-02-21T03:24:42;9.50;99.90
20881;DHT22;10600;53.096;8.802;2024-02-21T03:25:45;9.60;99.90
20881;DHT22;10600;53.096;8.802;2024-02-21T03:26:46;9.60;99.90
20881;DHT22;10600;53.096;8.802;2024-02-21T03:27:51;9.60;99.90
20881;DHT22;10600;53.096;8.802;2024-02-21T03:28:52;9.60;99.90
20881;DHT22;10600;53.096;8.802;2024-02-21T03:29:52;9.60;99.90
20881;DHT22;10600;53.096;8.802;2024-02-21T03:30:53;9.60;99.90
20881;DHT22;10600;53.096;8.802;2024-02-21T03:31:53;9.60;99.90
20881;DHT22;10600;53.096;8.802;2024-02-21T03:32:55;9.60;99.90
20881;DHT22;10600;53.096;8.802;2024-02-21T03:33:56;9.60;99.90
20881;DHT22;10600;53.096;8.802;2024-02-21T03:34:56;9.60;99.90
20881;DHT22;10600;53.096;8.802;2024-02-21T03:35:57;9.60;99.90
20881;DHT22;10600;53.096;8.802;2024-02-21T03:36:57;9.60;99.90
20881;DHT22;10600;53.096;8.802;2024-02-21T03:37:59;9.60;99.90
20881;DHT22;10600;53.096;8.802;2024-02-21T03:39:00;9.50;99.90
20881;DHT22;10600;53.096;8.802;2024-02-21T03:40:00;9.50;99.90
20881;DHT22;10600;53.096;8.802;2024-02-21T03:41:01;9.50;99.90
20881;DHT22;10600;53.096;8.802;2024-02-21T03:42:02;9.50;99.90
20881;DHT22;10600;53.096;8.802;2024-02-21T03:43:05;9.50;99.90
20881;DHT22;10600;53.096;8.802;2024-02-21T03:44:05;9.50;99.90
20881;DHT22;10600;53.096;8.802;2024-02-21T03:45:06;9.50;99.90
20881;DHT22;10600;53.096;8.802;2024-02-21T03:46:07;9.40;99.90
20881;DHT22;10600;53.096;8.802;2024-02-21T03:47:07;9.40;99.90
20881;DHT22;10600;53.096;8.802;2024-02-21T03:48:10;9.30;99.90
20881;DHT22;10600;53.096;8.802;2024-02-21T03:49:14;9.30;99.90
20881;DHT22;10600;53.096;8.802;2024-02-21T03:50:15;9.30;99.90
20881;DHT22;10600;53.096;8.802;2024-02-21T03:51:15;9.30;99.90
20881;DHT22;10600;53.096;8.802;2024-02-21T03:52:16;9.20;99.90
20881;DHT22;10600;53.096;8.802;2024-02-21T03:53:17;9.20;99.90
20881;DHT22;10600;53.096;8.802;2024-02-21T03:54:17;9.20;99.90
20881;DHT22;10600;53.096;8.802;2024-02-21T03:55:18;9.20;99.90
20881;DHT22;10600;53.096;8.802;2024-02-21T03:56:18;9.10;99.90
20881;DHT22;10600;53.096;8.802;2024-02-21T03:57:19;9.10;99.90
20881;DHT22;10600;53.096;8.802;2024-02-21T03:58:22;9.10;99.90
20881;DHT22;10600;53.096;8.802;2024-02-21T03:59:22;9.10;99.90
20881;DHT22;10600;53.096;8.802;2024-02-21T04:00:23;9.10;99.90
20881;DHT22;10600;53.096;8.802;2024-02-21T04:01:24;9.10;99.90
20881;DHT22;10600;53.096;8.802;2024-02-21T04:02:24;9.10;99.90
20881;DHT22;10600;53.096;8.802;2024-02-21T04:03:25;9.10;99.90
20881;DHT22;10600;53.096;8.802;2024-02-21T04:04:25;9.10;99.90
20881;DHT22;10600;53.096;8.802;2024-02-21T04:05:26;9.00;99.90
20881;DHT22;10600;53.096;8.802;2024-02-21T04:06:26;9.00;99.90
20881;DHT22;10600;53.096;8.802;2024-02-21T04:07:27;9.00;99.90
20881;DHT22;10600;53.096;8.802;2024-02-21T04:08:27;9.00;99.90
20881;DHT22;10600;53.096;8.802;2024-02-21T04:09:28;9.00;99.90
20881;DHT22;10600;53.096;8.802;2024-02-21T04:10:28;9.00;99.90
20881;DHT22;10600;53.096;8.802;2024-02-21T04:11:29;9.00;99.90
20881;DHT22;10600;53.096;8.802;2024-02-21T04:12:29;9.00;99.90
20881;DHT22;10600;53.096;8.802;2024-02-21T04:13:30;9.00;99.90
20881;DHT22;10600;53.096;8.802;2024-02-21T04:14:30;9.00;99.90
20881;DHT22;10600;53.096;8.802;2024-02-21T04:15:31;9.00;99.90
20881;DHT22;10600;53.096;8.802;2024-02-21T04:16:31;9.00;99.90
20881;DHT22;10600;53.096;8.802;2024-02-21T04:17:32;8.90;99.90
20881;DHT22;10600;53.096;8.802;2024-02-21T04:18:32;8.90;99.90
20881;DHT22;10600;53.096;8.802;2024-02-21T04:19:33;8.90;99.90
20881;DHT22;10600;53.096;8.802;2024-02-21T04:20:34;8.90;99.90
20881;DHT22;10600;53.096;8.802;2024-02-21T04:21:36;8.90;99.90
20881;DHT22;10600;53.096;8.802;2024-02-21T04:22:36;8.90;99.90
20881;DHT22;10600;53.096;8.802;2024-02-21T04:23:37;8.90;99.90
20881;DHT22;10600;53.096;8.802;2024-02-21T04:24:37;8.90;99.90
20881;DHT22;10600;53.096;8.802;2024-02-21T04:25:38;8.80;99.90
20881;DHT22;10600;53.096;8.802;2024-02-21T04:26:38;8.90;99.90
20881;DHT22;10600;53.096;8.802;2024-02-21T04:27:39;8.80;99.90
20881;DHT22;10600;53.096;8.802;2024-02-21T04:28:40;8.80;99.90
20881;DHT22;10600;53.096;8.802;2024-02-21T04:29:40;8.80;99.90
20881;DHT22;10600;53.096;8.802;2024-02-21T04:30:41;8.80;99.90
20881;DHT22;10600;53.096;8.802;2024-02-21T04:31:41;8.80;99.90
20881;DHT22;10600;53.096;8.802;2024-02-21T04:32:42;8.80;99.90
20881;DHT22;10600;53.096;8.802;2024-02-21T04:33:42;8.80;99.90
20881;DHT22;10600;53.096;8.802;2024-02-21T04:34:43;8.80;99.90
20881;DHT22;10600;53.096;8.802;2024-02-21T04:35:44;8.80;99.90
20881;DHT22;10600;53.096;8.802;2024-02-21T04:36:44;8.80;99.90
20881;DHT22;10600;53.096;8.802;2024-02-21T04:37:45;8.80;99.90
20881;DHT22;10600;53.096;8.802;2024-02-21T04:38:45;8.80;99.90
20881;DHT22;10600;53.096;8.802;2024-02-21T04:39:47;8.80;99.90
20881;DHT22;10600;53.096;8.802;2024-02-21T04:40:48;8.80;99.90
20881;DHT22;10600;53.096;8.802;2024-02-21T04:41:49;8.80;99.90
20881;DHT22;10600;53.096;8.802;2024-02-21T04:42:49;8.80;99.90
20881;DHT22;10600;53.096;8.802;2024-02-21T04:43:50;8.70;99.90
20881;DHT22;10600;53.096;8.802;2024-02-21T04:44:50;8.80;99.90
20881;DHT22;10600;53.096;8.802;2024-02-21T04:45:51;8.70;99.90
20881;DHT22;10600;53.096;8.802;2024-02-21T04:46:53;8.70;99.90
20881;DHT22;10600;53.096;8.802;2024-02-21T04:47:54;8.70;99.90
20881;DHT22;10600;53.096;8.802;2024-02-21T04:48:54;8.70;99.90
20881;DHT22;10600;53.096;8.802;2024-02-21T04:49:55;8.70;99.90
20881;DHT22;10600;53.096;8.802;2024-02-21T04:50:56;8.70;99.90
20881;DHT22;10600;53.096;8.802;2024-02-21T04:51:57;8.70;99.90
20881;DHT22;10600;53.096;8.802;2024-02-21T04:53:01;8.70;99.90
20881;DHT22;10600;53.096;8.802;2024-02-21T04:54:01;8.70;99.90
20881;DHT22;10600;53.096;8.802;2024-02-21T04:55:02;8.70;99.90
20881;DHT22;10600;53.096;8.802;2024-02-21T04:56:03;8.60;99.90
20881;DHT22;10600;53.096;8.802;2024-02-21T04:57:03;8.70;99.90
20881;DHT22;10600;53.096;8.802;2024-02-21T04:58:04;8.60;99.90
20881;DHT22;10600;53.096;8.802;2024-02-21T04:59:04;8.70;99.90
20881;DHT22;10600;53.096;8.802;2024-02-21T05:00:06;8.60;99.90
20881;DHT22;10600;53.096;8.802;2024-02-21T05:01:06;8.70;99.90
20881;DHT22;10600;53.096;8.802;2024-02-21T05:02:08;8.60;99.90
20881;DHT22;10600;53.096;8.802;2024-02-21T05:03:08;8.70;99.90
20881;DHT22;10600;53.096;8.802;2024-02-21T05:04:09;8.70;99.90
20881;DHT22;10600;53.096;8.802;2024-02-21T05:05:09;8.60;99.90
20881;DHT22;10600;53.096;8.802;2024-02-21T05:06:10;8.60;99.90
20881;DHT22;10600;53.096;8.802;2024-02-21T05:07:10;8.70;99.90
20881;DHT22;10600;53.096;8.802;2024-02-21T05:08:12;8.60;99.90
20881;DHT22;10600;53.096;8.802;2024-02-21T05:09:13;8.60;99.90
20881;DHT22;10600;53.096;8.802;2024-02-21T05:10:14;8.60;99.90
20881;DHT22;10600;53.096;8.802;2024-02-21T05:11:15;8.60;99.90
20881;DHT22;10600;53.096;8.802;2024-02-21T05:12:15;8.60;99.90
20881;DHT22;10600;53.096;8.802;2024-02-21T05:13:16;8.60;99.90
20881;DHT22;10600;53.096;8.802;2024-02-21T05:14:16;8.60;99.90
20881;DHT22;10600;53.096;8.802;2024-02-21T05:15:17;8.60;99.90
20881;DHT22;10600;53.096;8.802;2024-02-21T05:16:17;8.60;99.90
20881;DHT22;10600;53.096;8.802;2024-02-21T05:17:19;8.60;99.90
20881;DHT22;10600;53.096;8.802;2024-02-21T05:18:20;8.60;99.90
20881;DHT22;10600;53.096;8.802;2024-02-21T05:19:21;8.60;99.90
20881;DHT22;10600;53.096;8.802;2024-02-21T05:20:21;8.60;99.90
20881;DHT22;10600;53.096;8.802;2024-02-21T05:21:23;8.60;99.90
20881;DHT22;10600;53.096;8.802;2024-02-21T05:22:24;8.60;99.90
20881;DHT22;10600;53.096;8.802;2024-02-21T05:23:24;8.60;99.90
20881;DHT22;10600;53.096;8.802;2024-02-21T05:24:28;8.60;99.90
20881;DHT22;10600;53.096;8.802;2024-02-21T05:25:30;8.60;99.90
20881;DHT22;10600;53.096;8.802;2024-02-21T05:26:30;8.60;99.90
20881;DHT22;10600;53.096;8.802;2024-02-21T05:27:31;8.60;99.90
20881;DHT22;10600;53.096;8.802;2024-02-21T05:28:31;8.60;99.90
20881;DHT22;10600;53.096;8.802;2024-02-21T05:29:33;8.60;99.90
20881;DHT22;10600;53.096;8.802;2024-02-21T05:30:33;8.60;99.90
20881;DHT22;10600;53.096;8.802;2024-02-21T05:32:53;8.60;99.90
20881;DHT22;10600;53.096;8.802;2024-02-21T05:33:53;8.60;99.90
20881;DHT22;10600;53.096;8.802;2024-02-21T05:34:54;8.60;99.90
20881;DHT22;10600;53.096;8.802;2024-02-21T05:35:55;8.60;99.90
20881;DHT22;10600;53.096;8.802;2024-02-21T05:36:55;8.60;99.90
20881;DHT22;10600;53.096;8.802;2024-02-21T05:37:57;8.60;99.90
20881;DHT22;10600;53.096;8.802;2024-02-21T05:38:59;8.60;99.90
20881;DHT22;10600;53.096;8.802;2024-02-21T05:40:00;8.60;99.90
20881;DHT22;10600;53.096;8.802;2024-02-21T05:41:01;8.60;99.90
20881;DHT22;10600;53.096;8.802;2024-02-21T05:42:02;8.60;99.90
20881;DHT22;10600;53.096;8.802;2024-02-21T05:43:03;8.60;99.90
20881;DHT22;10600;53.096;8.802;2024-02-21T05:44:03;8.60;99.90
20881;DHT22;10600;53.096;8.802;2024-02-21T05:45:04;8.60;99.90
20881;DHT22;10600;53.096;8.802;2024-02-21T05:46:05;8.60;99.90
20881;DHT22;10600;53.096;8.802;2024-02-21T05:47:06;8.60;99.90
20881;DHT22;10600;53.096;8.802;2024-02-21T05:48:10;8.60;99.90
20881;DHT22;10600;53.096;8.802;2024-02-21T05:49:10;8.60;99.90
20881;DHT22;10600;53.096;8.802;2024-02-21T05:50:11;8.60;99.90
20881;DHT22;10600;53.096;8.802;2024-02-21T05:51:11;8.60;99.90
20881;DHT22;10600;53.096;8.802;2024-02-21T05:52:12;8.60;99.90
20881;DHT22;10600;53.096;8.802;2024-02-21T05:53:13;8.60;99.90
20881;DHT22;10600;53.096;8.802;2024-02-21T05:54:13;8.60;99.90
20881;DHT22;10600;53.096;8.802;2024-02-21T05:55:14;8.60;99.90
20881;DHT22;10600;53.096;8.802;2024-02-21T05:56:15;8.60;99.90
20881;DHT22;10600;53.096;8.802;2024-02-21T05:57:17;8.60;99.90
20881;DHT22;10600;53.096;8.802;2024-02-21T05:58:18;8.60;99.90
20881;DHT22;10600;53.096;8.802;2024-02-21T05:59:18;8.60;99.90
20881;DHT22;10600;53.096;8.802;2024-02-21T06:00:19;8.60;99.90
20881;DHT22;10600;53.096;8.802;2024-02-21T06:01:19;8.60;99.90
20881;DHT22;10600;53.096;8.802;2024-02-21T06:02:22;8.60;99.90
20881;DHT22;10600;53.096;8.802;2024-02-21T06:03:25;8.60;99.90
20881;DHT22;10600;53.096;8.802;2024-02-21T06:04:26;8.60;99.90
20881;DHT22;10600;53.096;8.802;2024-02-21T06:05:26;8.60;99.90
20881;DHT22;10600;53.096;8.802;2024-02-21T06:06:27;8.60;99.90
20881;DHT22;10600;53.096;8.802;2024-02-21T06:07:28;8.60;99.90
20881;DHT22;10600;53.096;8.802;2024-02-21T06:08:28;8.60;99.90
20881;DHT22;10600;53.096;8.802;2024-02-21T06:09:29;8.60;99.90
20881;DHT22;10600;53.096;8.802;2024-02-21T06:10:29;8.60;99.90
20881;DHT22;10600;53.096;8.802;2024-02-21T06:11:30;8.60;99.90
20881;DHT22;10600;53.096;8.802;2024-02-21T06:12:30;8.60;99.90
20881;DHT22;10600;53.096;8.802;2024-02-21T06:13:31;8.60;99.90
20881;DHT22;10600;53.096;8.802;2024-02-21T06:14:31;8.60;99.90
20881;DHT22;10600;53.096;8.802;2024-02-21T06:15:32;8.60;99.90
20881;DHT22;10600;53.096;8.802;2024-02-21T06:16:32;8.60;99.90
20881;DHT22;10600;53.096;8.802;2024-02-21T06:17:34;8.60;99.90
20881;DHT22;10600;53.096;8.802;2024-02-21T06:18:36;8.60;99.90
20881;DHT22;10600;53.096;8.802;2024-02-21T06:19:40;8.60;99.90
20881;DHT22;10600;53.096;8.802;2024-02-21T06:20:41;8.60;99.90
20881;DHT22;10600;53.096;8.802;2024-02-21T06:21:43;8.60;99.90
20881;DHT22;10600;53.096;8.802;2024-02-21T06:22:44;8.60;99.90
20881;DHT22;10600;53.096;8.802;2024-02-21T06:23:44;8.60;99.90
20881;DHT22;10600;53.096;8.802;2024-02-21T06:24:45;8.60;99.90
20881;DHT22;10600;53.096;8.802;2024-02-21T06:25:45;8.60;99.90
20881;DHT22;10600;53.096;8.802;2024-02-21T06:26:48;8.60;99.90
20881;DHT22;10600;53.096;8.802;2024-02-21T06:27:48;8.60;99.90
20881;DHT22;10600;53.096;8.802;2024-02-21T06:28:49;8.60;99.90
20881;DHT22;10600;53.096;8.802;2024-02-21T06:29:49;8.60;99.90
20881;DHT22;10600;53.096;8.802;2024-02-21T06:30:50;8.60;99.90
20881;DHT22;10600;53.096;8.802;2024-02-21T06:31:50;8.60;99.90
20881;DHT22;10600;53.096;8.802;2024-02-21T06:32:51;8.60;99.90
20881;DHT22;10600;53.096;8.802;2024-02-21T06:33:51;8.60;99.90